sensor_id;sensor_type;location;lat;lon;timestamp;P1;durP1;ratioP1;P2;durP2;ratioP2
18072;SDS011;9161;47.348;9.648;2023-07-09T00:01:38;9.85;;;4.40;;
18072;SDS011;9161;47.348;9.648;2023-07-09T00:06:41;7.35;;;3.45;;
18072;SDS011;9161;47.348;9.648;2023-07-09T00:11:44;16.88;;;3.75;;
18072;SDS011;9161;47.348;9.648;2023-07-09T00:16:47;8.48;;;3.97;;
18072;SDS011;9161;47.348;9.648;2023-07-09T00:21:51;7.32;;;3.63;;
18072;SDS011;9161;47.348;9.648;2023-07-09T00:26:54;8.00;;;3.75;;
18072;SDS011;9161;47.348;9.648;2023-07-09T00:31:57;8.18;;;3.53;;
18072;SDS011;9161;47.348;9.648;2023-07-09T00:37:00;9.15;;;4.47;;
18072;SDS011;9161;47.348;9.648;2023-07-09T00:42:03;10.23;;;4.10;;
18072;SDS011;9161;47.348;9.648;2023-07-09T00:47:18;8.85;;;4.60;;
18072;SDS011;9161;47.348;9.648;2023-07-09T00:52:28;12.80;;;4.55;;
18072;SDS011;9161;47.348;9.648;2023-07-09T00:57:35;6.65;;;3.53;;
18072;SDS011;9161;47.348;9.648;2023-07-09T01:02:43;7.63;;;3.00;;
18072;SDS011;9161;47.348;9.648;2023-07-09T01:07:50;5.95;;;2.75;;
18072;SDS011;9161;47.348;9.648;2023-07-09T01:12:53;7.72;;;2.88;;
18072;SDS011;9161;47.348;9.648;2023-07-09T01:17:55;4.65;;;2.63;;
18072;SDS011;9161;47.348;9.648;2023-07-09T01:22:59;8.18;;;3.33;;
18072;SDS011;9161;47.348;9.648;2023-07-09T01:28:01;12.95;;;3.83;;
18072;SDS011;9161;47.348;9.648;2023-07-09T01:33:03;6.80;;;3.10;;
18072;SDS011;9161;47.348;9.648;2023-07-09T01:38:08;7.30;;;3.28;;
18072;SDS011;9161;47.348;9.648;2023-07-09T01:43:10;7.75;;;3.45;;
18072;SDS011;9161;47.348;9.648;2023-07-09T01:48:12;6.40;;;3.55;;
18072;SDS011;9161;47.348;9.648;2023-07-09T01:53:18;8.43;;;3.25;;
18072;SDS011;9161;47.348;9.648;2023-07-09T01:58:23;8.20;;;3.35;;
18072;SDS011;9161;47.348;9.648;2023-07-09T02:03:26;8.75;;;3.40;;
18072;SDS011;9161;47.348;9.648;2023-07-09T02:08:30;7.53;;;3.20;;
18072;SDS011;9161;47.348;9.648;2023-07-09T02:13:31;6.17;;;3.40;;
18072;SDS011;9161;47.348;9.648;2023-07-09T02:18:34;7.43;;;3.40;;
18072;SDS011;9161;47.348;9.648;2023-07-09T02:23:37;10.68;;;3.90;;
18072;SDS011;9161;47.348;9.648;2023-07-09T02:28:39;6.00;;;3.63;;
18072;SDS011;9161;47.348;9.648;2023-07-09T02:33:41;7.03;;;3.47;;
18072;SDS011;9161;47.348;9.648;2023-07-09T02:38:45;7.70;;;3.03;;
18072;SDS011;9161;47.348;9.648;2023-07-09T02:43:47;6.63;;;3.00;;
18072;SDS011;9161;47.348;9.648;2023-07-09T02:48:49;9.18;;;3.55;;
18072;SDS011;9161;47.348;9.648;2023-07-09T02:53:53;9.00;;;3.60;;
18072;SDS011;9161;47.348;9.648;2023-07-09T02:58:56;7.53;;;3.83;;
18072;SDS011;9161;47.348;9.648;2023-07-09T03:03:58;6.80;;;3.73;;
18072;SDS011;9161;47.348;9.648;2023-07-09T03:09:04;8.70;;;3.83;;
18072;SDS011;9161;47.348;9.648;2023-07-09T03:14:06;6.63;;;3.87;;
18072;SDS011;9161;47.348;9.648;2023-07-09T03:19:09;5.37;;;3.47;;
18072;SDS011;9161;47.348;9.648;2023-07-09T03:24:13;11.13;;;4.20;;
18072;SDS011;9161;47.348;9.648;2023-07-09T03:29:19;11.03;;;4.13;;
18072;SDS011;9161;47.348;9.648;2023-07-09T03:34:21;7.53;;;4.30;;
18072;SDS011;9161;47.348;9.648;2023-07-09T03:39:25;12.07;;;4.23;;
18072;SDS011;9161;47.348;9.648;2023-07-09T03:44:27;8.20;;;4.33;;
18072;SDS011;9161;47.348;9.648;2023-07-09T03:49:29;8.10;;;4.18;;
18072;SDS011;9161;47.348;9.648;2023-07-09T03:54:32;8.32;;;3.67;;
18072;SDS011;9161;47.348;9.648;2023-07-09T03:59:34;9.33;;;4.17;;
18072;SDS011;9161;47.348;9.648;2023-07-09T04:04:37;9.67;;;4.30;;
18072;SDS011;9161;47.348;9.648;2023-07-09T04:09:40;12.20;;;4.63;;
18072;SDS011;9161;47.348;9.648;2023-07-09T04:14:43;11.50;;;6.00;;
18072;SDS011;9161;47.348;9.648;2023-07-09T04:19:45;9.47;;;3.93;;
18072;SDS011;9161;47.348;9.648;2023-07-09T04:24:48;8.17;;;3.70;;
18072;SDS011;9161;47.348;9.648;2023-07-09T04:29:51;5.70;;;3.10;;
18072;SDS011;9161;47.348;9.648;2023-07-09T04:34:52;8.52;;;4.03;;
18072;SDS011;9161;47.348;9.648;2023-07-09T04:39:56;8.63;;;4.40;;
18072;SDS011;9161;47.348;9.648;2023-07-09T04:44:57;7.70;;;4.40;;
18072;SDS011;9161;47.348;9.648;2023-07-09T04:50:00;8.15;;;4.35;;
18072;SDS011;9161;47.348;9.648;2023-07-09T04:55:04;9.45;;;4.53;;
18072;SDS011;9161;47.348;9.648;2023-07-09T05:00:08;8.98;;;4.30;;
18072;SDS011;9161;47.348;9.648;2023-07-09T05:05:11;6.90;;;3.90;;
18072;SDS011;9161;47.348;9.648;2023-07-09T05:10:16;8.82;;;3.60;;
18072;SDS011;9161;47.348;9.648;2023-07-09T05:15:19;8.60;;;3.92;;
18072;SDS011;9161;47.348;9.648;2023-07-09T05:20:22;9.02;;;3.80;;
18072;SDS011;9161;47.348;9.648;2023-07-09T05:25:26;8.00;;;3.53;;
18072;SDS011;9161;47.348;9.648;2023-07-09T05:30:28;8.18;;;3.80;;
18072;SDS011;9161;47.348;9.648;2023-07-09T05:35:30;5.65;;;3.30;;
18072;SDS011;9161;47.348;9.648;2023-07-09T05:40:33;9.90;;;4.03;;
18072;SDS011;9161;47.348;9.648;2023-07-09T05:45:36;7.75;;;3.45;;
18072;SDS011;9161;47.348;9.648;2023-07-09T05:50:40;5.15;;;3.00;;
18072;SDS011;9161;47.348;9.648;2023-07-09T05:55:45;5.95;;;3.22;;
18072;SDS011;9161;47.348;9.648;2023-07-09T06:00:49;7.75;;;3.35;;
18072;SDS011;9161;47.348;9.648;2023-07-09T06:05:54;8.38;;;3.70;;
18072;SDS011;9161;47.348;9.648;2023-07-09T06:10:59;7.07;;;3.70;;
18072;SDS011;9161;47.348;9.648;2023-07-09T06:16:04;6.00;;;3.03;;
18072;SDS011;9161;47.348;9.648;2023-07-09T06:21:07;5.97;;;3.40;;
18072;SDS011;9161;47.348;9.648;2023-07-09T06:26:23;14.30;;;4.80;;
18072;SDS011;9161;47.348;9.648;2023-07-09T06:31:25;6.40;;;3.15;;
18072;SDS011;9161;47.348;9.648;2023-07-09T06:36:27;9.02;;;3.72;;
18072;SDS011;9161;47.348;9.648;2023-07-09T06:41:35;10.43;;;3.55;;
18072;SDS011;9161;47.348;9.648;2023-07-09T06:46:50;9.82;;;5.05;;
18072;SDS011;9161;47.348;9.648;2023-07-09T06:51:54;7.88;;;3.55;;
18072;SDS011;9161;47.348;9.648;2023-07-09T06:56:57;5.80;;;3.05;;
18072;SDS011;9161;47.348;9.648;2023-07-09T07:01:59;6.35;;;3.20;;
18072;SDS011;9161;47.348;9.648;2023-07-09T07:07:04;5.88;;;3.42;;
18072;SDS011;9161;47.348;9.648;2023-07-09T07:12:08;7.95;;;3.60;;
18072;SDS011;9161;47.348;9.648;2023-07-09T07:17:11;6.30;;;3.67;;
18072;SDS011;9161;47.348;9.648;2023-07-09T07:22:14;6.40;;;3.30;;
18072;SDS011;9161;47.348;9.648;2023-07-09T07:27:18;6.45;;;3.15;;
18072;SDS011;9161;47.348;9.648;2023-07-09T07:32:20;5.82;;;3.22;;
18072;SDS011;9161;47.348;9.648;2023-07-09T07:37:23;7.20;;;3.60;;
18072;SDS011;9161;47.348;9.648;2023-07-09T07:42:26;5.78;;;3.17;;
18072;SDS011;9161;47.348;9.648;2023-07-09T07:47:28;5.63;;;3.40;;
18072;SDS011;9161;47.348;9.648;2023-07-09T07:52:30;8.57;;;4.18;;
18072;SDS011;9161;47.348;9.648;2023-07-09T07:57:34;7.70;;;3.35;;
18072;SDS011;9161;47.348;9.648;2023-07-09T08:02:37;6.53;;;2.80;;
18072;SDS011;9161;47.348;9.648;2023-07-09T08:07:42;8.07;;;3.50;;
18072;SDS011;9161;47.348;9.648;2023-07-09T08:12:46;7.72;;;3.50;;
18072;SDS011;9161;47.348;9.648;2023-07-09T08:17:48;5.97;;;3.13;;
18072;SDS011;9161;47.348;9.648;2023-07-09T08:22:50;5.63;;;3.13;;
18072;SDS011;9161;47.348;9.648;2023-07-09T08:27:54;5.85;;;3.30;;
18072;SDS011;9161;47.348;9.648;2023-07-09T08:32:55;6.10;;;3.35;;
18072;SDS011;9161;47.348;9.648;2023-07-09T08:37:59;7.72;;;3.13;;
18072;SDS011;9161;47.348;9.648;2023-07-09T08:43:02;7.30;;;3.20;;
18072;SDS011;9161;47.348;9.648;2023-07-09T08:48:14;5.22;;;3.30;;
18072;SDS011;9161;47.348;9.648;2023-07-09T08:53:24;8.63;;;3.22;;
18072;SDS011;9161;47.348;9.648;2023-07-09T08:58:34;6.78;;;3.28;;
18072;SDS011;9161;47.348;9.648;2023-07-09T09:03:39;8.90;;;2.97;;
18072;SDS011;9161;47.348;9.648;2023-07-09T09:08:47;11.57;;;3.38;;
18072;SDS011;9161;47.348;9.648;2023-07-09T09:13:58;7.25;;;3.13;;
18072;SDS011;9161;47.348;9.648;2023-07-09T09:19:05;7.45;;;3.60;;
18072;SDS011;9161;47.348;9.648;2023-07-09T09:24:18;5.00;;;3.25;;
18072;SDS011;9161;47.348;9.648;2023-07-09T09:29:30;5.28;;;3.35;;
18072;SDS011;9161;47.348;9.648;2023-07-09T09:34:32;5.38;;;3.35;;
18072;SDS011;9161;47.348;9.648;2023-07-09T09:39:37;7.80;;;3.75;;
18072;SDS011;9161;47.348;9.648;2023-07-09T09:44:44;5.35;;;3.72;;
18072;SDS011;9161;47.348;9.648;2023-07-09T09:49:47;12.93;;;3.85;;
18072;SDS011;9161;47.348;9.648;2023-07-09T09:54:51;8.52;;;3.63;;
18072;SDS011;9161;47.348;9.648;2023-07-09T09:59:58;6.35;;;3.10;;
18072;SDS011;9161;47.348;9.648;2023-07-09T10:05:01;4.95;;;3.10;;
18072;SDS011;9161;47.348;9.648;2023-07-09T10:10:03;7.72;;;3.00;;
18072;SDS011;9161;47.348;9.648;2023-07-09T10:15:18;6.65;;;3.80;;
18072;SDS011;9161;47.348;9.648;2023-07-09T10:20:30;5.13;;;3.50;;
18072;SDS011;9161;47.348;9.648;2023-07-09T10:25:39;6.85;;;3.35;;
18072;SDS011;9161;47.348;9.648;2023-07-09T10:30:49;27.52;;;4.88;;
18072;SDS011;9161;47.348;9.648;2023-07-09T10:36:09;6.78;;;3.20;;
18072;SDS011;9161;47.348;9.648;2023-07-09T10:41:23;9.73;;;3.70;;
18072;SDS011;9161;47.348;9.648;2023-07-09T10:46:36;9.00;;;3.50;;
18072;SDS011;9161;47.348;9.648;2023-07-09T10:51:41;9.43;;;3.70;;
18072;SDS011;9161;47.348;9.648;2023-07-09T10:56:54;9.43;;;3.38;;
18072;SDS011;9161;47.348;9.648;2023-07-09T11:02:11;5.68;;;3.30;;
18072;SDS011;9161;47.348;9.648;2023-07-09T11:07:22;8.30;;;3.28;;
18072;SDS011;9161;47.348;9.648;2023-07-09T11:12:29;9.10;;;3.70;;
18072;SDS011;9161;47.348;9.648;2023-07-09T11:17:40;9.70;;;3.53;;
18072;SDS011;9161;47.348;9.648;2023-07-09T11:22:51;5.75;;;3.42;;
18072;SDS011;9161;47.348;9.648;2023-07-09T11:28:01;6.47;;;3.33;;
18072;SDS011;9161;47.348;9.648;2023-07-09T11:33:16;7.70;;;3.30;;
18072;SDS011;9161;47.348;9.648;2023-07-09T11:38:24;10.57;;;3.45;;
18072;SDS011;9161;47.348;9.648;2023-07-09T11:43:27;7.78;;;2.95;;
18072;SDS011;9161;47.348;9.648;2023-07-09T11:48:34;5.35;;;3.22;;
18072;SDS011;9161;47.348;9.648;2023-07-09T11:53:37;7.03;;;3.15;;
18072;SDS011;9161;47.348;9.648;2023-07-09T11:58:48;7.72;;;2.90;;
18072;SDS011;9161;47.348;9.648;2023-07-09T12:03:52;10.88;;;2.92;;
18072;SDS011;9161;47.348;9.648;2023-07-09T12:08:57;26.92;;;3.90;;
18072;SDS011;9161;47.348;9.648;2023-07-09T12:14:03;6.18;;;3.13;;
18072;SDS011;9161;47.348;9.648;2023-07-09T12:19:11;6.10;;;2.55;;
18072;SDS011;9161;47.348;9.648;2023-07-09T12:29:23;5.22;;;3.00;;
18072;SDS011;9161;47.348;9.648;2023-07-09T12:34:27;5.28;;;2.85;;
18072;SDS011;9161;47.348;9.648;2023-07-09T12:39:33;5.90;;;2.88;;
18072;SDS011;9161;47.348;9.648;2023-07-09T12:44:35;8.00;;;3.28;;
18072;SDS011;9161;47.348;9.648;2023-07-09T12:49:40;5.90;;;2.75;;
18072;SDS011;9161;47.348;9.648;2023-07-09T12:54:51;5.82;;;2.50;;
18072;SDS011;9161;47.348;9.648;2023-07-09T12:59:57;6.18;;;2.80;;
18072;SDS011;9161;47.348;9.648;2023-07-09T13:05:02;8.60;;;2.85;;
18072;SDS011;9161;47.348;9.648;2023-07-09T13:10:07;4.40;;;2.53;;
18072;SDS011;9161;47.348;9.648;2023-07-09T13:20:42;7.22;;;2.47;;
18072;SDS011;9161;47.348;9.648;2023-07-09T13:25:47;10.55;;;2.40;;
18072;SDS011;9161;47.348;9.648;2023-07-09T13:30:50;6.10;;;2.30;;
18072;SDS011;9161;47.348;9.648;2023-07-09T13:35:55;4.93;;;2.38;;
18072;SDS011;9161;47.348;9.648;2023-07-09T13:41:00;6.68;;;2.30;;
18072;SDS011;9161;47.348;9.648;2023-07-09T13:46:11;4.40;;;2.20;;
18072;SDS011;9161;47.348;9.648;2023-07-09T13:51:16;3.08;;;2.00;;
18072;SDS011;9161;47.348;9.648;2023-07-09T13:56:20;5.72;;;2.00;;
18072;SDS011;9161;47.348;9.648;2023-07-09T14:01:24;5.95;;;2.08;;
18072;SDS011;9161;47.348;9.648;2023-07-09T14:06:27;4.35;;;1.92;;
18072;SDS011;9161;47.348;9.648;2023-07-09T14:11:29;5.97;;;1.98;;
18072;SDS011;9161;47.348;9.648;2023-07-09T14:16:32;2.83;;;1.90;;
18072;SDS011;9161;47.348;9.648;2023-07-09T14:21:35;3.67;;;2.22;;
18072;SDS011;9161;47.348;9.648;2023-07-09T14:26:37;3.60;;;2.05;;
18072;SDS011;9161;47.348;9.648;2023-07-09T14:31:40;7.30;;;2.13;;
18072;SDS011;9161;47.348;9.648;2023-07-09T14:36:44;4.20;;;2.20;;
18072;SDS011;9161;47.348;9.648;2023-07-09T14:41:47;4.55;;;2.00;;
18072;SDS011;9161;47.348;9.648;2023-07-09T14:46:51;5.30;;;2.45;;
18072;SDS011;9161;47.348;9.648;2023-07-09T14:51:56;5.45;;;2.47;;
18072;SDS011;9161;47.348;9.648;2023-07-09T14:56:59;5.93;;;2.10;;
18072;SDS011;9161;47.348;9.648;2023-07-09T15:02:01;12.27;;;3.00;;
18072;SDS011;9161;47.348;9.648;2023-07-09T15:07:12;34.65;;;3.63;;
18072;SDS011;9161;47.348;9.648;2023-07-09T15:12:18;10.18;;;2.90;;
18072;SDS011;9161;47.348;9.648;2023-07-09T15:17:23;5.28;;;2.63;;
18072;SDS011;9161;47.348;9.648;2023-07-09T15:22:27;6.10;;;3.13;;
18072;SDS011;9161;47.348;9.648;2023-07-09T15:27:33;5.28;;;2.45;;
18072;SDS011;9161;47.348;9.648;2023-07-09T15:32:39;5.30;;;2.58;;
18072;SDS011;9161;47.348;9.648;2023-07-09T15:37:43;6.60;;;2.58;;
18072;SDS011;9161;47.348;9.648;2023-07-09T15:42:48;4.68;;;2.17;;
18072;SDS011;9161;47.348;9.648;2023-07-09T15:47:56;9.38;;;2.78;;
18072;SDS011;9161;47.348;9.648;2023-07-09T15:52:59;18.00;;;3.10;;
18072;SDS011;9161;47.348;9.648;2023-07-09T15:58:02;6.22;;;2.15;;
18072;SDS011;9161;47.348;9.648;2023-07-09T16:03:04;6.97;;;2.30;;
18072;SDS011;9161;47.348;9.648;2023-07-09T16:08:22;8.15;;;2.60;;
18072;SDS011;9161;47.348;9.648;2023-07-09T16:13:24;5.22;;;2.30;;
18072;SDS011;9161;47.348;9.648;2023-07-09T16:18:28;4.90;;;2.17;;
18072;SDS011;9161;47.348;9.648;2023-07-09T16:23:32;5.03;;;2.40;;
18072;SDS011;9161;47.348;9.648;2023-07-09T16:28:34;10.07;;;2.30;;
18072;SDS011;9161;47.348;9.648;2023-07-09T16:33:36;5.25;;;2.17;;
18072;SDS011;9161;47.348;9.648;2023-07-09T16:38:40;4.65;;;2.28;;
18072;SDS011;9161;47.348;9.648;2023-07-09T16:43:42;23.55;;;3.03;;
18072;SDS011;9161;47.348;9.648;2023-07-09T16:48:44;7.25;;;2.53;;
18072;SDS011;9161;47.348;9.648;2023-07-09T16:53:48;5.65;;;2.28;;
18072;SDS011;9161;47.348;9.648;2023-07-09T16:58:51;4.88;;;2.28;;
18072;SDS011;9161;47.348;9.648;2023-07-09T17:03:53;5.72;;;2.53;;
18072;SDS011;9161;47.348;9.648;2023-07-09T17:08:56;7.78;;;2.30;;
18072;SDS011;9161;47.348;9.648;2023-07-09T17:13:58;5.80;;;2.28;;
18072;SDS011;9161;47.348;9.648;2023-07-09T17:19:00;6.88;;;2.10;;
18072;SDS011;9161;47.348;9.648;2023-07-09T17:24:07;21.40;;;3.22;;
18072;SDS011;9161;47.348;9.648;2023-07-09T17:29:21;31.20;;;3.63;;
18072;SDS011;9161;47.348;9.648;2023-07-09T17:34:25;6.10;;;2.17;;
18072;SDS011;9161;47.348;9.648;2023-07-09T17:39:29;22.17;;;3.53;;
18072;SDS011;9161;47.348;9.648;2023-07-09T17:44:31;25.52;;;3.42;;
18072;SDS011;9161;47.348;9.648;2023-07-09T17:49:34;26.75;;;3.15;;
18072;SDS011;9161;47.348;9.648;2023-07-09T17:54:38;20.08;;;2.50;;
18072;SDS011;9161;47.348;9.648;2023-07-09T17:59:41;12.85;;;2.75;;
18072;SDS011;9161;47.348;9.648;2023-07-09T18:04:43;23.85;;;3.50;;
18072;SDS011;9161;47.348;9.648;2023-07-09T18:09:47;25.27;;;3.20;;
18072;SDS011;9161;47.348;9.648;2023-07-09T18:14:53;14.98;;;4.97;;
18072;SDS011;9161;47.348;9.648;2023-07-09T18:19:58;21.10;;;3.67;;
18072;SDS011;9161;47.348;9.648;2023-07-09T18:25:02;12.32;;;4.00;;
18072;SDS011;9161;47.348;9.648;2023-07-09T18:30:13;17.10;;;5.22;;
18072;SDS011;9161;47.348;9.648;2023-07-09T18:35:21;9.45;;;3.38;;
18072;SDS011;9161;47.348;9.648;2023-07-09T18:40:27;22.17;;;3.70;;
18072;SDS011;9161;47.348;9.648;2023-07-09T18:45:34;14.00;;;3.58;;
18072;SDS011;9161;47.348;9.648;2023-07-09T18:50:37;19.33;;;3.85;;
18072;SDS011;9161;47.348;9.648;2023-07-09T18:55:41;19.38;;;4.15;;
18072;SDS011;9161;47.348;9.648;2023-07-09T19:00:44;10.50;;;3.10;;
18072;SDS011;9161;47.348;9.648;2023-07-09T19:05:46;8.00;;;2.90;;
18072;SDS011;9161;47.348;9.648;2023-07-09T19:10:50;6.53;;;2.67;;
18072;SDS011;9161;47.348;9.648;2023-07-09T19:15:53;6.57;;;2.53;;
18072;SDS011;9161;47.348;9.648;2023-07-09T19:20:55;7.57;;;2.60;;
18072;SDS011;9161;47.348;9.648;2023-07-09T19:26:01;10.63;;;3.05;;
18072;SDS011;9161;47.348;9.648;2023-07-09T19:31:04;11.52;;;3.55;;
18072;SDS011;9161;47.348;9.648;2023-07-09T19:36:14;8.20;;;3.40;;
18072;SDS011;9161;47.348;9.648;2023-07-09T19:41:23;10.63;;;3.30;;
18072;SDS011;9161;47.348;9.648;2023-07-09T19:46:26;14.02;;;3.40;;
18072;SDS011;9161;47.348;9.648;2023-07-09T19:51:29;14.05;;;3.03;;
18072;SDS011;9161;47.348;9.648;2023-07-09T19:56:38;10.30;;;3.35;;
18072;SDS011;9161;47.348;9.648;2023-07-09T20:01:42;10.23;;;2.78;;
18072;SDS011;9161;47.348;9.648;2023-07-09T20:06:48;8.13;;;2.80;;
18072;SDS011;9161;47.348;9.648;2023-07-09T20:11:52;8.45;;;3.63;;
18072;SDS011;9161;47.348;9.648;2023-07-09T20:16:54;6.65;;;3.25;;
18072;SDS011;9161;47.348;9.648;2023-07-09T20:21:57;9.05;;;3.63;;
18072;SDS011;9161;47.348;9.648;2023-07-09T20:27:00;12.63;;;3.78;;
18072;SDS011;9161;47.348;9.648;2023-07-09T20:32:08;11.07;;;4.50;;
18072;SDS011;9161;47.348;9.648;2023-07-09T20:37:20;8.38;;;4.45;;
18072;SDS011;9161;47.348;9.648;2023-07-09T20:42:26;11.05;;;4.78;;
18072;SDS011;9161;47.348;9.648;2023-07-09T20:47:30;10.57;;;4.45;;
18072;SDS011;9161;47.348;9.648;2023-07-09T20:52:52;7.25;;;3.75;;
18072;SDS011;9161;47.348;9.648;2023-07-09T20:58:18;9.90;;;3.78;;
18072;SDS011;9161;47.348;9.648;2023-07-09T21:03:38;6.32;;;3.10;;
18072;SDS011;9161;47.348;9.648;2023-07-09T21:08:40;8.15;;;2.70;;
18072;SDS011;9161;47.348;9.648;2023-07-09T21:13:44;7.30;;;3.28;;
18072;SDS011;9161;47.348;9.648;2023-07-09T21:18:47;7.35;;;3.13;;
18072;SDS011;9161;47.348;9.648;2023-07-09T21:23:49;9.02;;;3.53;;
18072;SDS011;9161;47.348;9.648;2023-07-09T21:28:52;8.82;;;3.55;;
18072;SDS011;9161;47.348;9.648;2023-07-09T21:33:55;6.47;;;3.22;;
18072;SDS011;9161;47.348;9.648;2023-07-09T21:38:58;8.25;;;3.05;;
18072;SDS011;9161;47.348;9.648;2023-07-09T21:44:01;12.07;;;3.55;;
18072;SDS011;9161;47.348;9.648;2023-07-09T21:49:04;11.02;;;3.47;;
18072;SDS011;9161;47.348;9.648;2023-07-09T21:54:10;7.75;;;2.90;;
18072;SDS011;9161;47.348;9.648;2023-07-09T21:59:49;6.28;;;3.00;;
18072;SDS011;9161;47.348;9.648;2023-07-09T22:04:51;5.88;;;3.00;;
18072;SDS011;9161;47.348;9.648;2023-07-09T22:09:54;9.25;;;3.00;;
18072;SDS011;9161;47.348;9.648;2023-07-09T22:14:59;5.68;;;2.90;;
18072;SDS011;9161;47.348;9.648;2023-07-09T22:20:13;7.65;;;3.05;;
18072;SDS011;9161;47.348;9.648;2023-07-09T22:25:17;7.68;;;3.15;;
18072;SDS011;9161;47.348;9.648;2023-07-09T22:30:28;7.32;;;3.25;;
18072;SDS011;9161;47.348;9.648;2023-07-09T22:35:33;7.68;;;2.55;;
18072;SDS011;9161;47.348;9.648;2023-07-09T22:40:38;6.05;;;3.15;;
18072;SDS011;9161;47.348;9.648;2023-07-09T22:45:42;6.90;;;2.92;;
18072;SDS011;9161;47.348;9.648;2023-07-09T22:50:49;6.95;;;3.10;;
18072;SDS011;9161;47.348;9.648;2023-07-09T22:55:54;8.38;;;3.00;;
18072;SDS011;9161;47.348;9.648;2023-07-09T23:01:01;9.93;;;3.00;;
18072;SDS011;9161;47.348;9.648;2023-07-09T23:06:13;8.18;;;3.17;;
18072;SDS011;9161;47.348;9.648;2023-07-09T23:11:18;6.47;;;3.00;;
18072;SDS011;9161;47.348;9.648;2023-07-09T23:16:27;6.63;;;3.35;;
18072;SDS011;9161;47.348;9.648;2023-07-09T23:21:32;6.70;;;3.40;;
18072;SDS011;9161;47.348;9.648;2023-07-09T23:26:37;8.15;;;3.42;;
18072;SDS011;9161;47.348;9.648;2023-07-09T23:31:47;8.57;;;3.25;;
18072;SDS011;9161;47.348;9.648;2023-07-09T23:36:50;6.47;;;3.72;;
18072;SDS011;9161;47.348;9.648;2023-07-09T23:41:52;8.30;;;3.50;;
18072;SDS011;9161;47.348;9.648;2023-07-09T23:46:57;4.93;;;3.05;;
18072;SDS011;9161;47.348;9.648;2023-07-09T23:52:00;8.23;;;3.58;;
18072;SDS011;9161;47.348;9.648;2023-07-09T23:57:03;6.70;;;3.40;;
